createdAt,value
2023-01-27T00:00:54.748Z,48.83
2023-01-27T00:01:54.744Z,49.16
2023-01-27T00:02:54.782Z,49.06
2023-01-27T00:03:54.738Z,49.06
2023-01-27T00:04:54.687Z,48.68
2023-01-27T00:05:54.669Z,48.08
2023-01-27T00:06:54.723Z,48.68
2023-01-27T00:07:54.648Z,48.98
2023-01-27T00:08:54.634Z,49.21
2023-01-27T00:09:54.672Z,49.60
2023-01-27T00:10:54.601Z,49.51
2023-01-27T00:11:54.617Z,49.21
2023-01-27T00:12:54.660Z,49.40
2023-01-27T00:13:54.628Z,49.40
2023-01-27T00:14:54.575Z,49.30
2023-01-27T00:15:54.608Z,49.43
2023-01-27T00:16:54.573Z,49.10
2023-01-27T00:17:54.572Z,48.61
2023-01-27T00:18:54.591Z,48.71
2023-01-27T00:19:54.564Z,47.91
2023-01-27T00:20:54.495Z,47.83
2023-01-27T00:21:54.502Z,47.93
2023-01-27T00:22:54.508Z,48.13
2023-01-27T00:23:54.565Z,48.13
2023-01-27T00:24:54.516Z,48.13
2023-01-27T00:25:54.529Z,48.23
2023-01-27T00:26:54.443Z,48.03
2023-01-27T00:27:54.449Z,48.13
2023-01-27T00:28:54.447Z,48.13
2023-01-27T00:29:54.478Z,47.63
2023-01-27T00:30:54.566Z,47.24
2023-01-27T00:31:54.540Z,46.84
2023-01-27T00:32:54.368Z,46.64
2023-01-27T00:33:54.338Z,46.64
2023-01-27T00:34:54.400Z,46.84
2023-01-27T00:35:54.415Z,47.03
2023-01-27T00:36:54.407Z,47.14
2023-01-27T00:37:54.430Z,46.94
2023-01-27T00:38:54.333Z,47.14
2023-01-27T00:39:54.327Z,47.14
2023-01-27T00:40:54.319Z,47.63
2023-01-27T00:41:54.286Z,47.33
2023-01-27T00:42:54.294Z,46.73
2023-01-27T00:43:54.240Z,47.33
2023-01-27T00:44:54.266Z,47.24
2023-01-27T00:45:54.256Z,46.84
2023-01-27T00:46:54.380Z,46.94
2023-01-27T00:47:54.275Z,47.24
2023-01-27T00:48:54.190Z,47.14
2023-01-27T00:49:54.244Z,47.26
2023-01-27T00:50:54.222Z,47.03
2023-01-27T00:51:54.201Z,47.36
2023-01-27T00:52:54.219Z,47.36
2023-01-27T00:53:54.202Z,47.26
2023-01-27T00:54:54.211Z,46.86
2023-01-27T00:55:54.321Z,46.76
2023-01-27T00:56:54.133Z,46.36
2023-01-27T00:57:54.133Z,46.56
2023-01-27T00:58:54.163Z,46.86
2023-01-27T00:59:54.099Z,46.26
2023-01-27T01:00:54.146Z,46.66
2023-01-27T01:01:54.124Z,46.26
2023-01-27T01:02:54.069Z,46.36
2023-01-27T01:03:54.067Z,45.76
2023-01-27T01:04:54.100Z,46.19
2023-01-27T01:05:53.978Z,46.88
2023-01-27T01:06:53.983Z,46.98
2023-01-27T01:07:54.013Z,46.88
2023-01-27T01:08:54.007Z,46.68
2023-01-27T01:09:54.424Z,46.76
2023-01-27T01:10:54.017Z,46.66
2023-01-27T01:11:53.984Z,46.66
2023-01-27T01:12:53.925Z,46.36
2023-01-27T01:13:56.426Z,46.36
2023-01-27T01:14:53.948Z,46.46
2023-01-27T01:15:54.470Z,46.06
2023-01-27T01:16:53.963Z,46.88
2023-01-27T01:17:53.977Z,46.78
2023-01-27T01:18:53.857Z,46.58
2023-01-27T01:19:53.885Z,46.68
2023-01-27T01:20:53.882Z,47.18
2023-01-27T01:21:53.878Z,46.88
2023-01-27T01:22:53.899Z,45.89
2023-01-27T01:23:53.915Z,46.38
2023-01-27T01:24:53.823Z,46.88
2023-01-27T01:25:53.832Z,46.98
2023-01-27T01:26:53.815Z,47.28
2023-01-27T01:27:53.826Z,47.48
2023-01-27T01:28:53.835Z,47.18
2023-01-27T01:29:53.810Z,47.58
2023-01-27T01:30:53.955Z,47.48
2023-01-27T01:31:53.744Z,47.68
2023-01-27T01:32:53.779Z,47.88
2023-01-27T01:33:53.768Z,48.08
2023-01-27T01:34:53.717Z,47.68
2023-01-27T01:35:53.811Z,47.88
2023-01-27T01:36:53.682Z,47.68
2023-01-27T01:37:53.689Z,47.98
2023-01-27T01:38:53.706Z,47.48
2023-01-27T01:39:53.705Z,47.68
2023-01-27T01:40:53.712Z,47.78
2023-01-27T01:41:53.718Z,47.88
2023-01-27T01:42:53.737Z,48.08
2023-01-27T01:43:53.633Z,47.98
2023-01-27T01:44:53.633Z,47.98
2023-01-27T01:45:53.742Z,48.18
2023-01-27T01:46:53.847Z,48.28
2023-01-27T01:47:53.631Z,48.08
2023-01-27T01:48:54.017Z,47.68
2023-01-27T01:49:53.681Z,47.98
2023-01-27T01:50:53.576Z,48.28
2023-01-27T01:51:54.192Z,48.80
2023-01-27T01:52:53.571Z,48.60
2023-01-27T01:53:53.529Z,48.60
2023-01-27T01:54:53.522Z,49.20
2023-01-27T01:55:53.758Z,49.10
2023-01-27T01:56:53.510Z,49.30
2023-01-27T01:57:53.452Z,48.20
2023-01-27T01:58:53.436Z,48.93
2023-01-27T01:59:53.548Z,49.22
2023-01-27T02:00:53.571Z,49.52
2023-01-27T02:01:53.444Z,49.92
2023-01-27T02:02:53.600Z,50.02
2023-01-27T02:03:53.736Z,49.62
2023-01-27T02:04:53.388Z,49.72
2023-01-27T02:05:53.344Z,49.92
2023-01-27T02:06:53.342Z,50.02
2023-01-27T02:07:53.391Z,50.32
2023-01-27T02:08:53.601Z,50.32
2023-01-27T02:09:53.301Z,50.32
2023-01-27T02:10:53.384Z,50.32
2023-01-27T02:11:53.279Z,50.12
2023-01-27T02:12:53.320Z,50.20
2023-01-27T02:13:53.305Z,50.20
2023-01-27T02:14:53.303Z,50.10
2023-01-27T02:15:53.280Z,49.80
2023-01-27T02:16:53.246Z,50.22
2023-01-27T02:17:53.223Z,50.42
2023-01-27T02:18:53.241Z,50.02
2023-01-27T02:19:53.232Z,50.72
2023-01-27T02:20:53.261Z,50.52
2023-01-27T02:21:53.139Z,49.52
2023-01-27T02:22:53.122Z,49.72
2023-01-27T02:23:53.173Z,50.12
2023-01-27T02:24:53.097Z,50.22
2023-01-27T02:25:53.102Z,50.12
2023-01-27T02:26:53.073Z,50.22
2023-01-27T02:27:53.129Z,50.42
2023-01-27T02:28:53.101Z,50.12
2023-01-27T02:29:53.039Z,50.32
2023-01-27T02:30:53.169Z,50.42
2023-01-27T02:31:53.224Z,50.00
2023-01-27T02:32:53.011Z,49.60
2023-01-27T02:33:52.996Z,49.80
2023-01-27T02:34:53.036Z,49.90
2023-01-27T02:35:52.970Z,49.92
2023-01-27T02:36:52.948Z,50.12
2023-01-27T02:37:52.970Z,50.12
2023-01-27T02:38:52.948Z,50.32
2023-01-27T02:39:52.968Z,50.42
2023-01-27T02:40:52.971Z,50.52
2023-01-27T02:41:52.952Z,51.02
2023-01-27T02:42:52.876Z,50.72
2023-01-27T02:43:52.880Z,51.32
2023-01-27T02:44:52.889Z,51.64
2023-01-27T02:45:52.877Z,51.75
2023-01-27T02:46:52.915Z,51.64
2023-01-27T02:47:52.848Z,52.14
2023-01-27T02:48:52.878Z,52.25
2023-01-27T02:49:52.819Z,52.25
2023-01-27T02:50:52.822Z,52.34
2023-01-27T02:51:52.781Z,52.34
2023-01-27T02:52:52.795Z,52.64
2023-01-27T02:53:52.745Z,53.04
2023-01-27T02:54:52.746Z,53.14
2023-01-27T02:55:52.812Z,53.24
2023-01-27T02:56:52.762Z,53.54
2023-01-27T02:57:52.763Z,53.34
2023-01-27T02:58:52.742Z,53.84
2023-01-27T02:59:52.903Z,53.74
2023-01-27T03:00:52.687Z,53.64
2023-01-27T03:01:52.695Z,53.54
2023-01-27T03:02:52.698Z,53.94
2023-01-27T03:03:52.707Z,54.24
2023-01-27T03:04:52.693Z,54.44
2023-01-27T03:05:52.667Z,54.37
2023-01-27T03:06:52.638Z,54.67
2023-01-27T03:07:52.634Z,54.86
2023-01-27T03:08:52.589Z,54.97
2023-01-27T03:09:52.592Z,54.97
2023-01-27T03:10:52.615Z,55.36
2023-01-27T03:11:52.555Z,55.47
2023-01-27T03:12:52.623Z,55.57
2023-01-27T03:13:52.573Z,55.47
2023-01-27T03:14:52.530Z,55.47
2023-01-27T03:15:52.618Z,55.57
2023-01-27T03:16:52.581Z,55.87
2023-01-27T03:17:52.510Z,55.87
2023-01-27T03:18:52.602Z,56.07
2023-01-27T03:19:52.492Z,56.16
2023-01-27T03:20:52.466Z,56.16
2023-01-27T03:21:52.523Z,56.27
2023-01-27T03:22:52.484Z,56.57
2023-01-27T03:23:52.554Z,56.87
2023-01-27T03:24:52.441Z,56.96
2023-01-27T03:25:52.440Z,57.26
2023-01-27T03:26:52.407Z,57.07
2023-01-27T03:27:52.428Z,57.07
2023-01-27T03:28:52.423Z,56.96
2023-01-27T03:29:52.396Z,57.17
2023-01-27T03:30:52.450Z,57.37
2023-01-27T03:31:52.551Z,57.57
2023-01-27T03:32:52.327Z,57.57
2023-01-27T03:33:52.401Z,57.46
2023-01-27T03:34:52.340Z,57.46
2023-01-27T03:35:52.337Z,57.37
2023-01-27T03:36:52.315Z,57.46
2023-01-27T03:37:52.265Z,57.46
2023-01-27T03:38:52.267Z,57.37
2023-01-27T03:39:52.294Z,56.87
2023-01-27T03:40:52.289Z,57.87
2023-01-27T03:41:52.230Z,58.06
2023-01-27T03:42:52.238Z,58.17
2023-01-27T03:43:52.204Z,58.17
2023-01-27T03:44:52.208Z,58.37
2023-01-27T03:45:52.230Z,58.26
2023-01-27T03:46:52.264Z,58.47
2023-01-27T03:47:52.234Z,58.37
2023-01-27T03:48:52.188Z,58.47
2023-01-27T03:49:52.160Z,58.47
2023-01-27T03:50:52.195Z,58.56
2023-01-27T03:51:52.153Z,58.47
2023-01-27T03:52:52.162Z,58.67
2023-01-27T03:53:52.161Z,58.76
2023-01-27T03:54:52.118Z,58.76
2023-01-27T03:55:52.074Z,59.19
2023-01-27T03:56:52.084Z,59.19
2023-01-27T03:57:52.081Z,59.30
2023-01-27T03:58:52.089Z,59.39
2023-01-27T03:59:52.051Z,59.49
2023-01-27T04:00:52.131Z,59.59
2023-01-27T04:01:52.051Z,59.39
2023-01-27T04:02:52.096Z,59.79
2023-01-27T04:03:52.045Z,59.79
2023-01-27T04:04:52.101Z,59.99
2023-01-27T04:05:52.015Z,59.89
2023-01-27T04:06:51.994Z,60.19
2023-01-27T04:07:52.005Z,60.10
2023-01-27T04:08:51.960Z,60.10
2023-01-27T04:09:51.963Z,60.19
2023-01-27T04:10:51.972Z,60.39
2023-01-27T04:11:51.931Z,60.39
2023-01-27T04:12:51.935Z,60.59
2023-01-27T04:13:51.888Z,60.69
2023-01-27T04:14:51.900Z,60.92
2023-01-27T04:15:51.948Z,60.79
2023-01-27T04:16:52.006Z,60.89
2023-01-27T04:17:51.873Z,60.89
2023-01-27T04:18:51.878Z,60.89
2023-01-27T04:19:51.829Z,60.99
2023-01-27T04:20:51.832Z,60.99
2023-01-27T04:21:51.852Z,60.89
2023-01-27T04:22:51.857Z,60.89
2023-01-27T04:23:51.827Z,60.99
2023-01-27T04:24:51.770Z,61.19
2023-01-27T04:25:51.770Z,61.19
2023-01-27T04:26:51.790Z,61.19
2023-01-27T04:27:51.774Z,61.29
2023-01-27T04:28:51.795Z,61.29
2023-01-27T04:29:51.761Z,61.09
2023-01-27T04:30:51.799Z,61.29
2023-01-27T04:31:51.781Z,61.59
2023-01-27T04:32:51.727Z,61.72
2023-01-27T04:33:51.723Z,61.52
2023-01-27T04:34:51.732Z,62.12
2023-01-27T04:35:51.738Z,62.02
2023-01-27T04:36:51.646Z,62.52
2023-01-27T04:37:51.644Z,62.55
2023-01-27T04:38:51.708Z,62.55
2023-01-27T04:39:51.684Z,62.95
2023-01-27T04:40:51.624Z,63.15
2023-01-27T04:41:51.649Z,63.15
2023-01-27T04:42:51.646Z,63.35
2023-01-27T04:43:51.597Z,63.15
2023-01-27T04:44:51.649Z,63.25
2023-01-27T04:45:51.611Z,63.15
2023-01-27T04:46:51.599Z,63.25
2023-01-27T04:47:51.618Z,63.45
2023-01-27T04:48:51.519Z,63.45
2023-01-27T04:49:51.582Z,63.45
2023-01-27T04:50:51.593Z,63.15
2023-01-27T04:51:51.497Z,62.92
2023-01-27T04:52:51.511Z,62.92
2023-01-27T04:53:51.526Z,63.15
2023-01-27T04:54:51.454Z,63.45
2023-01-27T04:55:51.515Z,63.35
2023-01-27T04:56:51.464Z,63.65
2023-01-27T04:57:51.422Z,63.75
2023-01-27T04:58:51.428Z,63.85
2023-01-27T04:59:51.441Z,63.85
2023-01-27T05:00:51.390Z,63.95
2023-01-27T05:01:51.451Z,63.85
2023-01-27T05:02:51.445Z,64.09
2023-01-27T05:03:51.356Z,63.98
2023-01-27T05:04:51.363Z,64.09
2023-01-27T05:05:51.387Z,64.18
2023-01-27T05:06:51.322Z,64.25
2023-01-27T05:07:51.344Z,64.06
2023-01-27T05:08:51.441Z,64.15
2023-01-27T05:09:51.298Z,64.06
2023-01-27T05:10:51.301Z,63.95
2023-01-27T05:11:51.362Z,63.85
2023-01-27T05:12:51.262Z,63.62
2023-01-27T05:13:51.273Z,63.42
2023-01-27T05:14:51.291Z,63.42
2023-01-27T05:15:51.252Z,63.85
2023-01-27T05:16:51.287Z,63.75
2023-01-27T05:17:51.259Z,63.95
2023-01-27T05:18:51.204Z,64.06
2023-01-27T05:19:51.219Z,64.15
2023-01-27T05:20:52.191Z,64.06
2023-01-27T05:21:51.157Z,64.06
2023-01-27T05:22:51.191Z,64.25
2023-01-27T05:23:51.371Z,64.45
2023-01-27T05:24:51.182Z,64.55
2023-01-27T05:25:51.154Z,64.36
2023-01-27T05:26:51.099Z,64.25
2023-01-27T05:27:51.092Z,64.25
2023-01-27T05:28:51.101Z,64.36
2023-01-27T05:29:51.109Z,64.15
2023-01-27T05:30:51.139Z,64.55
2023-01-27T05:31:51.195Z,64.36
2023-01-27T05:32:51.060Z,64.25
2023-01-27T05:33:51.033Z,64.45
2023-01-27T05:34:51.014Z,64.45
2023-01-27T05:35:51.045Z,64.36
2023-01-27T05:36:51.021Z,64.25
2023-01-27T05:37:51.106Z,64.22
2023-01-27T05:38:50.966Z,64.22
2023-01-27T05:39:50.971Z,64.45
2023-01-27T05:40:50.968Z,64.55
2023-01-27T05:41:51.007Z,65.09
2023-01-27T05:42:50.962Z,65.28
2023-01-27T05:43:50.992Z,65.69
2023-01-27T05:44:50.936Z,65.69
2023-01-27T05:45:50.912Z,65.69
2023-01-27T05:46:50.933Z,65.59
2023-01-27T05:47:50.974Z,65.39
2023-01-27T05:48:50.897Z,65.39
2023-01-27T05:49:50.877Z,65.28
2023-01-27T05:50:50.975Z,65.39
2023-01-27T05:51:50.850Z,65.48
2023-01-27T05:52:50.897Z,65.48
2023-01-27T05:53:50.904Z,65.59
2023-01-27T05:54:50.879Z,65.59
2023-01-27T05:55:50.884Z,65.59
2023-01-27T05:56:50.787Z,65.59
2023-01-27T05:57:50.794Z,65.78
2023-01-27T05:58:50.799Z,65.78
2023-01-27T05:59:50.834Z,66.09
2023-01-27T06:00:50.837Z,66.19
2023-01-27T06:01:51.038Z,65.89
2023-01-27T06:02:50.774Z,65.86
2023-01-27T06:03:50.835Z,65.55
2023-01-27T06:04:50.842Z,65.55
2023-01-27T06:05:50.788Z,65.66
2023-01-27T06:06:50.756Z,65.59
2023-01-27T06:07:50.959Z,65.99
2023-01-27T06:08:50.713Z,66.39
2023-01-27T06:09:50.719Z,66.39
2023-01-27T06:10:50.671Z,66.39
2023-01-27T06:11:51.036Z,66.49
2023-01-27T06:12:50.683Z,66.78
2023-01-27T06:13:50.637Z,66.78
2023-01-27T06:14:50.609Z,66.99
2023-01-27T06:15:50.713Z,67.19
2023-01-27T06:16:50.628Z,67.09
2023-01-27T06:17:52.760Z,67.12
2023-01-27T06:18:50.629Z,67.12
2023-01-27T06:19:50.586Z,67.22
2023-01-27T06:20:50.638Z,67.32
2023-01-27T06:21:50.600Z,67.22
2023-01-27T06:22:50.522Z,66.89
2023-01-27T06:23:51.093Z,67.09
2023-01-27T06:24:50.569Z,67.29
2023-01-27T06:25:50.541Z,67.09
2023-01-27T06:26:50.524Z,67.29
2023-01-27T06:27:50.477Z,67.09
2023-01-27T06:28:50.453Z,67.19
2023-01-27T06:29:50.576Z,67.39
2023-01-27T06:30:50.459Z,67.92
2023-01-27T06:31:50.497Z,68.22
2023-01-27T06:32:50.478Z,68.42
2023-01-27T06:33:50.476Z,68.52
2023-01-27T06:34:50.378Z,68.73
2023-01-27T06:35:51.008Z,68.82
2023-01-27T06:36:50.379Z,68.82
2023-01-27T06:37:50.452Z,68.92
2023-01-27T06:38:50.432Z,68.82
2023-01-27T06:39:50.298Z,69.12
2023-01-27T06:40:50.306Z,69.73
2023-01-27T06:41:50.519Z,69.96
2023-01-27T06:42:50.594Z,70.06
2023-01-27T06:43:50.325Z,70.96
2023-01-27T06:44:50.308Z,71.20
2023-01-27T06:45:50.293Z,71.09
2023-01-27T06:46:50.244Z,71.39
2023-01-27T06:47:50.462Z,71.50
2023-01-27T06:48:50.281Z,71.26
2023-01-27T06:49:50.266Z,71.06
2023-01-27T06:50:50.282Z,71.20
2023-01-27T06:51:50.181Z,71.36
2023-01-27T06:52:50.186Z,71.26
2023-01-27T06:53:50.245Z,71.26
2023-01-27T06:54:50.198Z,71.06
2023-01-27T06:55:50.204Z,71.06
2023-01-27T06:56:50.203Z,71.06
2023-01-27T06:57:50.171Z,71.36
2023-01-27T06:58:50.151Z,71.80
2023-01-27T06:59:50.142Z,72.00
2023-01-27T07:00:50.105Z,72.09
2023-01-27T07:01:50.166Z,72.09
2023-01-27T07:02:50.206Z,72.09
2023-01-27T07:03:50.064Z,72.09
2023-01-27T07:04:50.068Z,71.80
2023-01-27T07:05:50.082Z,72.00
2023-01-27T07:06:50.121Z,72.00
2023-01-27T07:07:50.154Z,72.00
2023-01-27T07:08:50.050Z,72.80
2023-01-27T07:09:52.576Z,73.13
2023-01-27T07:10:50.021Z,73.13
2023-01-27T07:11:50.013Z,73.10
2023-01-27T07:12:50.059Z,73.20
2023-01-27T07:13:50.091Z,73.00
2023-01-27T07:14:49.985Z,72.80
2023-01-27T07:15:49.942Z,72.47
2023-01-27T07:16:49.995Z,72.36
2023-01-27T07:17:50.462Z,72.36
2023-01-27T07:18:50.013Z,72.27
2023-01-27T07:19:50.021Z,72.06
2023-01-27T07:20:49.913Z,72.36
2023-01-27T07:21:49.935Z,72.47
2023-01-27T07:22:49.886Z,72.77
2023-01-27T07:23:49.924Z,72.66
2023-01-27T07:24:49.939Z,72.66
2023-01-27T07:25:49.965Z,72.66
2023-01-27T07:26:49.858Z,72.77
2023-01-27T07:27:49.850Z,72.36
2023-01-27T07:28:49.838Z,72.77
2023-01-27T07:29:49.970Z,72.66
2023-01-27T07:30:49.910Z,72.77
2023-01-27T07:31:49.827Z,73.07
2023-01-27T07:32:49.757Z,73.07
2023-01-27T07:33:49.799Z,73.20
2023-01-27T07:34:49.919Z,73.80
2023-01-27T07:35:49.837Z,74.10
2023-01-27T07:36:49.815Z,74.44
2023-01-27T07:37:49.724Z,75.04
2023-01-27T07:38:49.696Z,75.04
2023-01-27T07:39:49.747Z,75.04
2023-01-27T07:40:49.682Z,74.84
2023-01-27T07:41:49.741Z,74.60
2023-01-27T07:42:49.647Z,74.60
2023-01-27T07:43:51.519Z,74.30
2023-01-27T07:44:49.609Z,74.20
2023-01-27T07:45:49.652Z,73.97
2023-01-27T07:46:49.634Z,73.86
2023-01-27T07:47:49.694Z,73.97
2023-01-27T07:48:49.641Z,73.67
2023-01-27T07:49:49.621Z,73.86
2023-01-27T07:50:49.739Z,73.57
2023-01-27T07:51:49.595Z,74.20
2023-01-27T07:52:49.563Z,74.80
2023-01-27T07:53:49.566Z,75.34
2023-01-27T07:54:49.562Z,75.84
2023-01-27T07:55:49.986Z,75.95
2023-01-27T07:56:49.619Z,75.84
2023-01-27T07:57:49.523Z,75.51
2023-01-27T07:58:49.497Z,75.31
2023-01-27T07:59:49.498Z,75.41
2023-01-27T08:00:49.547Z,75.51
2023-01-27T08:01:49.514Z,75.41
2023-01-27T08:02:49.545Z,75.31
2023-01-27T08:03:49.432Z,75.01
2023-01-27T08:04:53.240Z,74.87
2023-01-27T08:05:49.445Z,74.87
2023-01-27T08:06:49.529Z,74.77
2023-01-27T08:07:49.452Z,75.01
2023-01-27T08:08:49.400Z,75.84
2023-01-27T08:09:49.363Z,76.54
2023-01-27T08:10:49.389Z,76.75
2023-01-27T08:11:49.417Z,76.65
2023-01-27T08:12:49.390Z,76.75
2023-01-27T08:13:49.380Z,76.75
2023-01-27T08:14:49.338Z,76.54
2023-01-27T08:15:49.305Z,76.25
2023-01-27T08:16:49.355Z,76.04
2023-01-27T08:17:49.300Z,76.04
2023-01-27T08:18:49.322Z,75.84
2023-01-27T08:19:49.311Z,76.45
2023-01-27T08:20:49.339Z,76.65
2023-01-27T08:21:49.235Z,76.54
2023-01-27T08:22:49.253Z,76.25
2023-01-27T08:23:49.273Z,76.45
2023-01-27T08:24:49.262Z,76.54
2023-01-27T08:25:49.209Z,76.65
2023-01-27T08:26:49.171Z,76.65
2023-01-27T08:27:49.219Z,76.95
2023-01-27T08:28:49.231Z,77.15
2023-01-27T08:29:49.246Z,77.05
2023-01-27T08:30:49.128Z,77.05
2023-01-27T08:31:49.128Z,76.95
2023-01-27T08:32:49.167Z,76.85
2023-01-27T08:33:49.115Z,76.85
2023-01-27T08:34:49.116Z,76.85
2023-01-27T08:35:49.119Z,76.75
2023-01-27T08:36:49.128Z,76.85
2023-01-27T08:37:49.137Z,77.05
2023-01-27T08:38:49.042Z,77.15
2023-01-27T08:39:49.004Z,77.15
2023-01-27T08:40:49.062Z,76.75
2023-01-27T08:41:48.958Z,77.15
2023-01-27T08:42:48.965Z,77.15
2023-01-27T08:43:49.062Z,76.85
2023-01-27T08:44:48.980Z,76.65
2023-01-27T08:45:48.990Z,76.54
2023-01-27T08:46:48.956Z,76.54
2023-01-27T08:47:48.909Z,76.65
2023-01-27T08:48:48.908Z,76.95
2023-01-27T08:49:48.945Z,77.15
2023-01-27T08:50:48.922Z,76.95
2023-01-27T08:51:48.933Z,77.05
2023-01-27T08:52:49.089Z,77.35
2023-01-27T08:53:48.869Z,77.45
2023-01-27T08:54:48.875Z,77.59
2023-01-27T08:55:48.855Z,77.55
2023-01-27T08:56:48.890Z,77.55
2023-01-27T08:57:48.825Z,77.45
2023-01-27T08:58:48.823Z,77.59
2023-01-27T08:59:48.833Z,77.79
2023-01-27T09:00:48.841Z,77.79
2023-01-27T09:01:48.789Z,77.55
2023-01-27T09:02:48.892Z,77.45
2023-01-27T09:03:48.870Z,77.15
2023-01-27T09:04:48.788Z,77.05
2023-01-27T09:05:48.718Z,77.05
2023-01-27T09:06:48.754Z,76.95
2023-01-27T09:07:48.823Z,76.61
2023-01-27T09:08:48.761Z,76.51
2023-01-27T09:09:48.739Z,76.51
2023-01-27T09:10:48.681Z,76.81
2023-01-27T09:11:48.748Z,76.81
2023-01-27T09:12:48.689Z,76.71
2023-01-27T09:13:48.693Z,76.71
2023-01-27T09:14:48.670Z,76.71
2023-01-27T09:15:48.698Z,76.81
2023-01-27T09:16:48.652Z,76.71
2023-01-27T09:17:48.625Z,76.61
2023-01-27T09:18:48.620Z,76.01
2023-01-27T09:19:48.673Z,76.21
2023-01-27T09:20:48.610Z,76.51
2023-01-27T09:21:48.688Z,76.41
2023-01-27T09:22:48.565Z,76.31
2023-01-27T09:23:48.611Z,75.81
2023-01-27T09:24:48.705Z,76.31
2023-01-27T09:25:48.671Z,75.91
2023-01-27T09:26:48.615Z,76.31
2023-01-27T09:27:48.643Z,76.41
2023-01-27T09:28:48.642Z,76.11
2023-01-27T09:29:48.497Z,76.61
2023-01-27T09:30:48.721Z,76.81
2023-01-27T09:31:48.567Z,77.11
2023-01-27T09:32:48.612Z,77.11
2023-01-27T09:33:48.493Z,77.15
2023-01-27T09:34:48.434Z,77.01
2023-01-27T09:35:48.473Z,76.91
2023-01-27T09:36:48.502Z,76.61
2023-01-27T09:37:48.448Z,76.81
2023-01-27T09:38:48.453Z,76.81
2023-01-27T09:39:48.520Z,77.01
2023-01-27T09:40:48.367Z,76.91
2023-01-27T09:41:48.431Z,76.91
2023-01-27T09:42:48.376Z,77.01
2023-01-27T09:43:48.444Z,77.11
2023-01-27T09:44:48.389Z,76.91
2023-01-27T09:45:48.325Z,76.81
2023-01-27T09:46:48.361Z,76.81
2023-01-27T09:47:48.306Z,76.81
2023-01-27T09:48:48.359Z,76.67
2023-01-27T09:49:48.368Z,76.57
2023-01-27T09:50:48.241Z,76.78
2023-01-27T09:51:48.299Z,76.81
2023-01-27T09:52:48.446Z,77.21
2023-01-27T09:53:48.193Z,77.11
2023-01-27T09:54:48.219Z,77.11
2023-01-27T09:55:48.249Z,77.31
2023-01-27T09:56:48.230Z,77.41
2023-01-27T09:57:48.238Z,77.41
2023-01-27T09:58:48.243Z,77.41
2023-01-27T09:59:48.143Z,77.31
2023-01-27T10:00:48.154Z,77.17
2023-01-27T10:01:48.259Z,76.98
2023-01-27T10:02:48.173Z,76.78
2023-01-27T10:03:48.174Z,76.78
2023-01-27T10:04:48.212Z,76.67
2023-01-27T10:05:48.085Z,76.34
2023-01-27T10:06:48.157Z,76.24
2023-01-27T10:07:48.102Z,76.04
2023-01-27T10:08:48.166Z,75.63
2023-01-27T10:09:48.115Z,75.84
2023-01-27T10:10:48.151Z,75.13
2023-01-27T10:11:48.071Z,75.84
2023-01-27T10:12:48.054Z,75.34
2023-01-27T10:13:48.034Z,75.13
2023-01-27T10:14:48.071Z,75.63
2023-01-27T10:15:48.029Z,75.54
2023-01-27T10:16:48.050Z,75.63
2023-01-27T10:17:47.959Z,75.54
2023-01-27T10:18:48.006Z,75.84
2023-01-27T10:19:48.105Z,75.63
2023-01-27T10:20:48.005Z,76.24
2023-01-27T10:21:47.901Z,76.28
2023-01-27T10:22:48.063Z,76.57
2023-01-27T10:23:47.888Z,76.78
2023-01-27T10:24:47.951Z,77.11
2023-01-27T10:25:47.922Z,77.17
2023-01-27T10:26:47.937Z,77.28
2023-01-27T10:27:47.821Z,77.17
2023-01-27T10:28:47.867Z,76.98
2023-01-27T10:29:47.835Z,77.04
2023-01-27T10:30:47.869Z,76.64
2023-01-27T10:31:47.881Z,76.24
2023-01-27T10:32:47.818Z,76.14
2023-01-27T10:33:47.758Z,76.04
2023-01-27T10:34:47.762Z,75.80
2023-01-27T10:35:47.835Z,75.70
2023-01-27T10:36:47.840Z,75.60
2023-01-27T10:37:47.824Z,75.93
2023-01-27T10:38:47.818Z,76.24
2023-01-27T10:39:47.870Z,76.43
2023-01-27T10:40:47.735Z,76.43
2023-01-27T10:41:47.733Z,76.54
2023-01-27T10:42:47.712Z,76.64
2023-01-27T10:43:50.030Z,76.43
2023-01-27T10:44:47.625Z,76.34
2023-01-27T10:45:47.673Z,76.04
2023-01-27T10:46:48.308Z,76.14
2023-01-27T10:47:47.705Z,76.14
2023-01-27T10:48:47.686Z,75.84
2023-01-27T10:49:48.300Z,75.93
2023-01-27T10:50:47.597Z,76.24
2023-01-27T10:51:47.600Z,76.20
2023-01-27T10:52:47.612Z,75.80
2023-01-27T10:53:47.609Z,75.80
2023-01-27T10:54:47.617Z,75.90
2023-01-27T10:55:47.577Z,76.20
2023-01-27T10:56:47.663Z,76.10
2023-01-27T10:57:47.540Z,76.00
2023-01-27T10:58:47.552Z,75.80
2023-01-27T11:00:05.279Z,75.30
2023-01-27T11:01:47.612Z,75.40
2023-01-27T11:02:47.463Z,75.84
2023-01-27T11:03:47.508Z,76.24
2023-01-27T11:04:47.484Z,76.14
2023-01-27T11:05:47.483Z,75.80
2023-01-27T11:06:47.512Z,75.54
2023-01-27T11:07:47.413Z,75.84
2023-01-27T11:08:47.364Z,75.93
2023-01-27T11:09:47.412Z,76.04
2023-01-27T11:10:47.378Z,76.24
2023-01-27T11:11:47.410Z,75.90
2023-01-27T11:12:47.395Z,75.70
2023-01-27T11:13:47.424Z,75.50
2023-01-27T11:14:47.478Z,75.00
2023-01-27T11:15:47.370Z,74.96
2023-01-27T11:16:47.408Z,74.87
2023-01-27T11:17:47.428Z,74.76
2023-01-27T11:18:47.374Z,74.46
2023-01-27T11:19:47.307Z,73.96
2023-01-27T11:20:47.235Z,74.06
2023-01-27T11:21:55.481Z,73.96
2023-01-27T11:22:48.094Z,74.26
2023-01-27T11:23:47.333Z,74.16
2023-01-27T11:24:47.313Z,74.26
2023-01-27T11:25:47.213Z,74.37
2023-01-27T11:26:47.174Z,74.37
2023-01-27T11:27:47.232Z,74.16
2023-01-27T11:28:47.192Z,74.26
2023-01-27T11:29:47.272Z,73.93
2023-01-27T11:30:47.162Z,73.63
2023-01-27T11:31:47.270Z,73.22
2023-01-27T11:32:47.178Z,72.89
2023-01-27T11:33:47.171Z,73.19
2023-01-27T11:34:47.182Z,72.69
2023-01-27T11:35:47.280Z,72.59
2023-01-27T11:36:49.302Z,72.49
2023-01-27T11:37:47.095Z,72.09
2023-01-27T11:38:47.093Z,72.16
2023-01-27T11:39:47.095Z,72.36
2023-01-27T11:40:47.120Z,72.26
2023-01-27T11:41:47.083Z,71.86
2023-01-27T11:42:47.092Z,72.32
2023-01-27T11:43:47.127Z,71.22
2023-01-27T11:44:47.000Z,71.03
2023-01-27T11:45:47.067Z,70.29
2023-01-27T11:46:47.109Z,70.49
2023-01-27T11:47:47.009Z,70.49
2023-01-27T11:48:46.972Z,70.69
2023-01-27T11:49:47.071Z,70.06
2023-01-27T11:50:46.977Z,69.76
2023-01-27T11:51:46.989Z,69.86
2023-01-27T11:52:47.771Z,69.62
2023-01-27T11:53:47.874Z,69.32
2023-01-27T11:54:47.031Z,69.13
2023-01-27T11:55:46.967Z,68.99
2023-01-27T11:56:46.863Z,68.49
2023-01-27T11:57:46.865Z,68.70
2023-01-27T11:58:46.972Z,68.46
2023-01-27T11:59:47.039Z,67.77
2023-01-27T12:00:46.839Z,67.24
2023-01-27T12:01:46.846Z,67.03
2023-01-27T12:02:46.916Z,66.53
2023-01-27T12:03:46.873Z,67.03
2023-01-27T12:04:46.962Z,66.74
2023-01-27T12:05:47.120Z,66.94
2023-01-27T12:06:46.785Z,66.83
2023-01-27T12:07:46.746Z,66.24
2023-01-27T12:08:46.749Z,66.27
2023-01-27T12:09:46.762Z,66.67
2023-01-27T12:10:46.851Z,66.87
2023-01-27T12:11:46.712Z,66.24
2023-01-27T12:12:46.717Z,66.64
2023-01-27T12:13:46.675Z,66.34
2023-01-27T12:14:46.731Z,65.84
2023-01-27T12:15:46.754Z,66.14
2023-01-27T12:16:46.652Z,65.74
2023-01-27T12:17:46.644Z,65.94
2023-01-27T12:18:46.765Z,65.64
2023-01-27T12:19:46.660Z,66.83
2023-01-27T12:20:46.630Z,66.80
2023-01-27T12:21:46.705Z,65.81
2023-01-27T12:22:46.581Z,66.34
2023-01-27T12:23:46.589Z,66.14
2023-01-27T12:24:46.642Z,66.64
2023-01-27T12:25:48.408Z,66.31
2023-01-27T12:26:46.610Z,65.48
2023-01-27T12:27:46.615Z,65.05
2023-01-27T12:28:46.520Z,64.65
2023-01-27T12:29:46.505Z,64.25
2023-01-27T12:30:46.565Z,64.15
2023-01-27T12:31:46.565Z,64.52
2023-01-27T12:32:46.491Z,64.32
2023-01-27T12:33:47.555Z,64.00
2023-01-27T12:34:46.470Z,62.90
2023-01-27T12:35:46.515Z,63.30
2023-01-27T12:36:46.523Z,62.80
2023-01-27T12:37:47.272Z,63.89
2023-01-27T12:38:46.449Z,63.30
2023-01-27T12:39:46.551Z,63.30
2023-01-27T12:40:46.422Z,63.10
2023-01-27T12:41:46.381Z,63.40
2023-01-27T12:42:46.385Z,63.60
2023-01-27T12:43:46.411Z,64.09
2023-01-27T12:44:46.343Z,63.57
2023-01-27T12:45:46.362Z,62.27
2023-01-27T12:46:46.367Z,62.47
2023-01-27T12:47:46.317Z,62.54
2023-01-27T12:48:46.324Z,61.94
2023-01-27T12:49:46.361Z,61.94
2023-01-27T12:50:46.301Z,61.55
2023-01-27T12:51:46.299Z,61.15
2023-01-27T12:52:46.350Z,61.42
2023-01-27T12:53:46.258Z,60.53